sensor_id;sensor_type;location;lat;lon;timestamp;P1;durP1;ratioP1;P2;durP2;ratioP2
14584;SDS011;7379;51.506;11.876;2023-05-10T00:00:11;5.03;;;3.90;;
14584;SDS011;7379;51.506;11.876;2023-05-10T00:02:38;4.28;;;3.65;;
14584;SDS011;7379;51.506;11.876;2023-05-10T00:05:06;5.72;;;3.85;;
14584;SDS011;7379;51.506;11.876;2023-05-10T00:07:33;4.63;;;3.78;;
14584;SDS011;7379;51.506;11.876;2023-05-10T00:10:00;4.05;;;3.65;;
14584;SDS011;7379;51.506;11.876;2023-05-10T00:12:26;4.75;;;3.83;;
14584;SDS011;7379;51.506;11.876;2023-05-10T00:14:53;3.97;;;3.58;;
14584;SDS011;7379;51.506;11.876;2023-05-10T00:17:21;4.22;;;3.83;;
14584;SDS011;7379;51.506;11.876;2023-05-10T00:19:48;4.05;;;3.58;;
14584;SDS011;7379;51.506;11.876;2023-05-10T00:22:15;5.68;;;3.90;;
14584;SDS011;7379;51.506;11.876;2023-05-10T00:24:42;4.22;;;3.83;;
14584;SDS011;7379;51.506;11.876;2023-05-10T00:27:09;4.70;;;3.83;;
14584;SDS011;7379;51.506;11.876;2023-05-10T00:29:36;4.03;;;3.63;;
14584;SDS011;7379;51.506;11.876;2023-05-10T00:32:03;4.68;;;3.65;;
14584;SDS011;7379;51.506;11.876;2023-05-10T00:34:32;5.65;;;3.85;;
14584;SDS011;7379;51.506;11.876;2023-05-10T00:36:59;4.97;;;3.42;;
14584;SDS011;7379;51.506;11.876;2023-05-10T00:39:25;4.35;;;3.95;;
14584;SDS011;7379;51.506;11.876;2023-05-10T00:41:53;4.93;;;3.58;;
14584;SDS011;7379;51.506;11.876;2023-05-10T00:44:20;4.30;;;3.90;;
14584;SDS011;7379;51.506;11.876;2023-05-10T00:46:47;5.13;;;3.85;;
14584;SDS011;7379;51.506;11.876;2023-05-10T00:49:14;3.92;;;3.53;;
14584;SDS011;7379;51.506;11.876;2023-05-10T00:51:43;5.47;;;3.65;;
14584;SDS011;7379;51.506;11.876;2023-05-10T00:54:10;4.35;;;3.95;;
14584;SDS011;7379;51.506;11.876;2023-05-10T00:56:37;4.90;;;4.00;;
14584;SDS011;7379;51.506;11.876;2023-05-10T00:59:05;4.78;;;3.78;;
14584;SDS011;7379;51.506;11.876;2023-05-10T01:01:32;4.45;;;3.67;;
14584;SDS011;7379;51.506;11.876;2023-05-10T01:03:59;4.60;;;4.20;;
14584;SDS011;7379;51.506;11.876;2023-05-10T01:06:26;3.97;;;3.60;;
14584;SDS011;7379;51.506;11.876;2023-05-10T01:08:54;4.30;;;3.50;;
14584;SDS011;7379;51.506;11.876;2023-05-10T01:11:22;5.45;;;3.85;;
14584;SDS011;7379;51.506;11.876;2023-05-10T01:13:54;3.67;;;3.30;;
14584;SDS011;7379;51.506;11.876;2023-05-10T01:16:23;4.30;;;3.90;;
14584;SDS011;7379;51.506;11.876;2023-05-10T01:18:52;4.43;;;4.00;;
14584;SDS011;7379;51.506;11.876;2023-05-10T01:21:21;5.88;;;4.20;;
14584;SDS011;7379;51.506;11.876;2023-05-10T01:24:09;5.88;;;4.05;;
14584;SDS011;7379;51.506;11.876;2023-05-10T01:26:58;4.38;;;3.97;;
14584;SDS011;7379;51.506;11.876;2023-05-10T01:29:44;4.68;;;3.97;;
14584;SDS011;7379;51.506;11.876;2023-05-10T01:32:36;4.72;;;4.20;;
14584;SDS011;7379;51.506;11.876;2023-05-10T01:35:06;6.25;;;4.10;;
14584;SDS011;7379;51.506;11.876;2023-05-10T01:37:41;4.60;;;4.00;;
14584;SDS011;7379;51.506;11.876;2023-05-10T01:40:13;4.90;;;4.40;;
14584;SDS011;7379;51.506;11.876;2023-05-10T01:42:47;4.75;;;4.30;;
14584;SDS011;7379;51.506;11.876;2023-05-10T01:45:19;5.07;;;4.20;;
14584;SDS011;7379;51.506;11.876;2023-05-10T01:47:53;4.53;;;4.13;;
14584;SDS011;7379;51.506;11.876;2023-05-10T01:50:27;5.00;;;4.30;;
14584;SDS011;7379;51.506;11.876;2023-05-10T01:52:57;4.63;;;4.03;;
14584;SDS011;7379;51.506;11.876;2023-05-10T01:55:27;4.85;;;4.10;;
14584;SDS011;7379;51.506;11.876;2023-05-10T01:57:58;4.38;;;3.92;;
14584;SDS011;7379;51.506;11.876;2023-05-10T02:00:29;5.10;;;3.83;;
14584;SDS011;7379;51.506;11.876;2023-05-10T02:02:58;6.20;;;3.72;;
14584;SDS011;7379;51.506;11.876;2023-05-10T02:05:28;4.47;;;4.03;;
14584;SDS011;7379;51.506;11.876;2023-05-10T02:07:56;4.53;;;4.07;;
14584;SDS011;7379;51.506;11.876;2023-05-10T02:10:25;4.72;;;3.90;;
14584;SDS011;7379;51.506;11.876;2023-05-10T02:12:53;4.30;;;3.90;;
14584;SDS011;7379;51.506;11.876;2023-05-10T02:15:22;5.57;;;4.20;;
14584;SDS011;7379;51.506;11.876;2023-05-10T02:17:50;5.22;;;4.03;;
14584;SDS011;7379;51.506;11.876;2023-05-10T02:20:22;4.63;;;4.22;;
14584;SDS011;7379;51.506;11.876;2023-05-10T02:22:51;5.30;;;3.90;;
14584;SDS011;7379;51.506;11.876;2023-05-10T02:25:21;5.93;;;4.20;;
14584;SDS011;7379;51.506;11.876;2023-05-10T02:27:49;4.50;;;3.95;;
14584;SDS011;7379;51.506;11.876;2023-05-10T02:30:19;5.68;;;4.00;;
14584;SDS011;7379;51.506;11.876;2023-05-10T02:32:47;4.25;;;3.72;;
14584;SDS011;7379;51.506;11.876;2023-05-10T02:35:16;4.47;;;4.07;;
14584;SDS011;7379;51.506;11.876;2023-05-10T02:37:44;4.70;;;4.22;;
14584;SDS011;7379;51.506;11.876;2023-05-10T02:40:12;5.18;;;3.97;;
14584;SDS011;7379;51.506;11.876;2023-05-10T02:42:41;5.10;;;4.15;;
14584;SDS011;7379;51.506;11.876;2023-05-10T02:45:11;4.53;;;4.07;;
14584;SDS011;7379;51.506;11.876;2023-05-10T02:47:39;4.22;;;3.80;;
14584;SDS011;7379;51.506;11.876;2023-05-10T02:50:06;4.65;;;4.15;;
14584;SDS011;7379;51.506;11.876;2023-05-10T02:52:39;5.20;;;4.30;;
14584;SDS011;7379;51.506;11.876;2023-05-10T02:55:12;4.68;;;4.18;;
14584;SDS011;7379;51.506;11.876;2023-05-10T02:57:41;5.57;;;3.85;;
14584;SDS011;7379;51.506;11.876;2023-05-10T03:00:13;5.10;;;4.60;;
14584;SDS011;7379;51.506;11.876;2023-05-10T03:02:40;4.75;;;3.92;;
14584;SDS011;7379;51.506;11.876;2023-05-10T03:05:07;6.25;;;4.10;;
14584;SDS011;7379;51.506;11.876;2023-05-10T03:07:34;4.55;;;4.15;;
14584;SDS011;7379;51.506;11.876;2023-05-10T03:10:02;4.60;;;3.95;;
14584;SDS011;7379;51.506;11.876;2023-05-10T03:12:33;4.57;;;4.18;;
14584;SDS011;7379;51.506;11.876;2023-05-10T03:15:11;4.70;;;4.30;;
14584;SDS011;7379;51.506;11.876;2023-05-10T03:17:45;4.75;;;3.72;;
14584;SDS011;7379;51.506;11.876;2023-05-10T03:20:20;5.32;;;4.15;;
14584;SDS011;7379;51.506;11.876;2023-05-10T03:22:51;5.30;;;4.20;;
14584;SDS011;7379;51.506;11.876;2023-05-10T03:25:21;4.82;;;4.20;;
14584;SDS011;7379;51.506;11.876;2023-05-10T03:27:50;4.00;;;3.70;;
14584;SDS011;7379;51.506;11.876;2023-05-10T03:30:18;4.80;;;4.20;;
14584;SDS011;7379;51.506;11.876;2023-05-10T03:32:46;4.85;;;4.05;;
14584;SDS011;7379;51.506;11.876;2023-05-10T03:35:12;4.53;;;4.10;;
14584;SDS011;7379;51.506;11.876;2023-05-10T03:37:39;4.80;;;4.10;;
14584;SDS011;7379;51.506;11.876;2023-05-10T03:40:07;4.40;;;4.00;;
14584;SDS011;7379;51.506;11.876;2023-05-10T03:42:34;6.22;;;4.30;;
14584;SDS011;7379;51.506;11.876;2023-05-10T03:45:02;4.43;;;4.00;;
14584;SDS011;7379;51.506;11.876;2023-05-10T03:47:29;5.05;;;4.13;;
14584;SDS011;7379;51.506;11.876;2023-05-10T03:49:56;4.40;;;4.00;;
14584;SDS011;7379;51.506;11.876;2023-05-10T03:52:23;4.57;;;4.18;;
14584;SDS011;7379;51.506;11.876;2023-05-10T03:54:50;4.82;;;4.30;;
14584;SDS011;7379;51.506;11.876;2023-05-10T03:57:17;6.32;;;4.13;;
14584;SDS011;7379;51.506;11.876;2023-05-10T03:59:43;5.88;;;4.03;;
14584;SDS011;7379;51.506;11.876;2023-05-10T04:02:12;4.45;;;4.03;;
14584;SDS011;7379;51.506;11.876;2023-05-10T04:04:38;7.10;;;4.50;;
14584;SDS011;7379;51.506;11.876;2023-05-10T04:07:05;5.28;;;4.20;;
14584;SDS011;7379;51.506;11.876;2023-05-10T04:09:32;5.05;;;4.22;;
14584;SDS011;7379;51.506;11.876;2023-05-10T04:11:59;6.28;;;3.90;;
14584;SDS011;7379;51.506;11.876;2023-05-10T04:14:27;5.07;;;4.40;;
14584;SDS011;7379;51.506;11.876;2023-05-10T04:16:54;5.68;;;4.22;;
14584;SDS011;7379;51.506;11.876;2023-05-10T04:19:22;4.70;;;4.20;;
14584;SDS011;7379;51.506;11.876;2023-05-10T04:21:49;5.32;;;4.22;;
14584;SDS011;7379;51.506;11.876;2023-05-10T04:24:16;4.80;;;3.88;;
14584;SDS011;7379;51.506;11.876;2023-05-10T04:26:43;4.93;;;4.20;;
14584;SDS011;7379;51.506;11.876;2023-05-10T04:29:10;5.00;;;4.50;;
14584;SDS011;7379;51.506;11.876;2023-05-10T04:31:37;4.63;;;3.92;;
14584;SDS011;7379;51.506;11.876;2023-05-10T04:34:04;4.80;;;4.30;;
14584;SDS011;7379;51.506;11.876;2023-05-10T04:36:32;4.63;;;4.13;;
14584;SDS011;7379;51.506;11.876;2023-05-10T04:39:00;4.75;;;4.28;;
14584;SDS011;7379;51.506;11.876;2023-05-10T04:41:28;5.25;;;4.05;;
14584;SDS011;7379;51.506;11.876;2023-05-10T04:43:55;8.18;;;3.95;;
14584;SDS011;7379;51.506;11.876;2023-05-10T04:46:21;4.68;;;4.20;;
14584;SDS011;7379;51.506;11.876;2023-05-10T04:48:48;4.63;;;3.97;;
14584;SDS011;7379;51.506;11.876;2023-05-10T04:51:15;4.93;;;4.18;;
14584;SDS011;7379;51.506;11.876;2023-05-10T04:53:43;5.20;;;4.28;;
14584;SDS011;7379;51.506;11.876;2023-05-10T04:56:10;4.43;;;3.70;;
14584;SDS011;7379;51.506;11.876;2023-05-10T04:58:37;5.32;;;4.03;;
14584;SDS011;7379;51.506;11.876;2023-05-10T05:01:07;4.65;;;4.15;;
14584;SDS011;7379;51.506;11.876;2023-05-10T05:03:35;7.13;;;4.32;;
14584;SDS011;7379;51.506;11.876;2023-05-10T05:06:02;5.97;;;4.05;;
14584;SDS011;7379;51.506;11.876;2023-05-10T05:08:29;6.75;;;4.53;;
14584;SDS011;7379;51.506;11.876;2023-05-10T05:10:57;7.43;;;4.05;;
14584;SDS011;7379;51.506;11.876;2023-05-10T05:13:24;6.95;;;4.57;;
14584;SDS011;7379;51.506;11.876;2023-05-10T05:15:51;5.75;;;3.97;;
14584;SDS011;7379;51.506;11.876;2023-05-10T05:18:18;4.60;;;3.83;;
14584;SDS011;7379;51.506;11.876;2023-05-10T05:20:45;8.48;;;4.15;;
14584;SDS011;7379;51.506;11.876;2023-05-10T05:23:12;5.18;;;3.72;;
14584;SDS011;7379;51.506;11.876;2023-05-10T05:25:38;4.22;;;3.83;;
14584;SDS011;7379;51.506;11.876;2023-05-10T05:28:07;4.00;;;3.60;;
14584;SDS011;7379;51.506;11.876;2023-05-10T05:30:33;5.38;;;3.92;;
14584;SDS011;7379;51.506;11.876;2023-05-10T05:33:00;5.45;;;4.30;;
14584;SDS011;7379;51.506;11.876;2023-05-10T05:35:27;4.80;;;3.92;;
14584;SDS011;7379;51.506;11.876;2023-05-10T05:37:54;5.88;;;4.50;;
14584;SDS011;7379;51.506;11.876;2023-05-10T05:40:21;4.25;;;3.85;;
14584;SDS011;7379;51.506;11.876;2023-05-10T05:42:48;5.68;;;4.30;;
14584;SDS011;7379;51.506;11.876;2023-05-10T05:45:16;4.55;;;4.15;;
14584;SDS011;7379;51.506;11.876;2023-05-10T05:47:43;6.18;;;4.20;;
14584;SDS011;7379;51.506;11.876;2023-05-10T05:50:10;5.25;;;4.13;;
14584;SDS011;7379;51.506;11.876;2023-05-10T05:52:37;5.75;;;4.00;;
14584;SDS011;7379;51.506;11.876;2023-05-10T05:55:04;4.85;;;4.13;;
14584;SDS011;7379;51.506;11.876;2023-05-10T05:57:31;4.50;;;4.10;;
14584;SDS011;7379;51.506;11.876;2023-05-10T05:59:58;4.32;;;3.92;;
14584;SDS011;7379;51.506;11.876;2023-05-10T06:02:26;5.43;;;3.97;;
14584;SDS011;7379;51.506;11.876;2023-05-10T06:04:53;6.80;;;3.97;;
14584;SDS011;7379;51.506;11.876;2023-05-10T06:07:20;5.53;;;3.78;;
14584;SDS011;7379;51.506;11.876;2023-05-10T06:09:46;5.40;;;4.55;;
14584;SDS011;7379;51.506;11.876;2023-05-10T06:12:13;4.53;;;4.05;;
14584;SDS011;7379;51.506;11.876;2023-05-10T06:14:40;4.68;;;4.18;;
14584;SDS011;7379;51.506;11.876;2023-05-10T06:17:07;4.90;;;4.07;;
14584;SDS011;7379;51.506;11.876;2023-05-10T06:19:35;4.57;;;4.07;;
14584;SDS011;7379;51.506;11.876;2023-05-10T06:22:02;5.47;;;3.80;;
14584;SDS011;7379;51.506;11.876;2023-05-10T06:24:29;5.72;;;4.00;;
14584;SDS011;7379;51.506;11.876;2023-05-10T06:26:56;4.38;;;3.88;;
14584;SDS011;7379;51.506;11.876;2023-05-10T06:29:25;4.57;;;3.90;;
14584;SDS011;7379;51.506;11.876;2023-05-10T06:31:52;4.47;;;3.90;;
14584;SDS011;7379;51.506;11.876;2023-05-10T06:34:19;4.68;;;3.90;;
14584;SDS011;7379;51.506;11.876;2023-05-10T06:36:47;6.10;;;4.10;;
14584;SDS011;7379;51.506;11.876;2023-05-10T06:39:14;5.60;;;3.72;;
14584;SDS011;7379;51.506;11.876;2023-05-10T06:41:41;4.53;;;4.13;;
14584;SDS011;7379;51.506;11.876;2023-05-10T06:44:08;4.78;;;3.75;;
14584;SDS011;7379;51.506;11.876;2023-05-10T06:46:34;5.45;;;4.07;;
14584;SDS011;7379;51.506;11.876;2023-05-10T06:49:01;4.38;;;3.97;;
14584;SDS011;7379;51.506;11.876;2023-05-10T06:51:28;4.80;;;4.18;;
14584;SDS011;7379;51.506;11.876;2023-05-10T06:53:56;5.80;;;4.40;;
14584;SDS011;7379;51.506;11.876;2023-05-10T06:56:23;5.65;;;4.10;;
14584;SDS011;7379;51.506;11.876;2023-05-10T06:58:50;5.07;;;4.18;;
14584;SDS011;7379;51.506;11.876;2023-05-10T07:01:17;5.13;;;4.32;;
14584;SDS011;7379;51.506;11.876;2023-05-10T07:03:43;5.70;;;4.60;;
14584;SDS011;7379;51.506;11.876;2023-05-10T07:06:10;4.35;;;3.95;;
14584;SDS011;7379;51.506;11.876;2023-05-10T07:08:37;4.72;;;4.30;;
14584;SDS011;7379;51.506;11.876;2023-05-10T07:11:06;6.32;;;4.35;;
14584;SDS011;7379;51.506;11.876;2023-05-10T07:13:33;6.30;;;4.30;;
14584;SDS011;7379;51.506;11.876;2023-05-10T07:16:01;4.68;;;4.28;;
14584;SDS011;7379;51.506;11.876;2023-05-10T07:18:28;4.75;;;3.80;;
14584;SDS011;7379;51.506;11.876;2023-05-10T07:20:55;5.22;;;4.13;;
14584;SDS011;7379;51.506;11.876;2023-05-10T07:23:23;5.30;;;4.07;;
14584;SDS011;7379;51.506;11.876;2023-05-10T07:25:50;5.68;;;4.03;;
14584;SDS011;7379;51.506;11.876;2023-05-10T07:28:19;5.95;;;4.22;;
14584;SDS011;7379;51.506;11.876;2023-05-10T07:30:46;4.90;;;4.40;;
14584;SDS011;7379;51.506;11.876;2023-05-10T07:33:13;7.78;;;4.50;;
14584;SDS011;7379;51.506;11.876;2023-05-10T07:35:40;4.70;;;4.30;;
14584;SDS011;7379;51.506;11.876;2023-05-10T07:38:07;5.78;;;4.70;;
14584;SDS011;7379;51.506;11.876;2023-05-10T07:40:36;6.55;;;4.53;;
14584;SDS011;7379;51.506;11.876;2023-05-10T07:43:03;6.03;;;4.05;;
14584;SDS011;7379;51.506;11.876;2023-05-10T07:45:31;6.78;;;4.50;;
14584;SDS011;7379;51.506;11.876;2023-05-10T07:47:59;5.78;;;4.55;;
14584;SDS011;7379;51.506;11.876;2023-05-10T07:50:25;5.40;;;4.40;;
14584;SDS011;7379;51.506;11.876;2023-05-10T07:52:52;5.38;;;4.57;;
14584;SDS011;7379;51.506;11.876;2023-05-10T07:55:19;4.40;;;4.00;;
14584;SDS011;7379;51.506;11.876;2023-05-10T07:57:47;6.63;;;4.32;;
14584;SDS011;7379;51.506;11.876;2023-05-10T08:00:16;4.53;;;4.10;;
14584;SDS011;7379;51.506;11.876;2023-05-10T08:02:46;4.60;;;4.20;;
14584;SDS011;7379;51.506;11.876;2023-05-10T08:05:13;5.47;;;4.57;;
14584;SDS011;7379;51.506;11.876;2023-05-10T08:07:40;4.90;;;4.47;;
14584;SDS011;7379;51.506;11.876;2023-05-10T08:10:09;6.70;;;4.68;;
14584;SDS011;7379;51.506;11.876;2023-05-10T08:12:37;8.60;;;4.50;;
14584;SDS011;7379;51.506;11.876;2023-05-10T08:15:04;5.47;;;4.82;;
14584;SDS011;7379;51.506;11.876;2023-05-10T08:17:32;7.55;;;4.80;;
14584;SDS011;7379;51.506;11.876;2023-05-10T08:20:00;9.07;;;4.90;;
14584;SDS011;7379;51.506;11.876;2023-05-10T08:22:27;4.70;;;4.30;;
14584;SDS011;7379;51.506;11.876;2023-05-10T08:24:54;6.88;;;4.90;;
14584;SDS011;7379;51.506;11.876;2023-05-10T08:27:21;5.28;;;4.78;;
14584;SDS011;7379;51.506;11.876;2023-05-10T08:29:48;4.95;;;4.45;;
14584;SDS011;7379;51.506;11.876;2023-05-10T08:32:15;4.85;;;4.32;;
14584;SDS011;7379;51.506;11.876;2023-05-10T08:34:41;5.47;;;4.72;;
14584;SDS011;7379;51.506;11.876;2023-05-10T08:37:10;7.85;;;4.95;;
14584;SDS011;7379;51.506;11.876;2023-05-10T08:39:38;6.15;;;4.60;;
14584;SDS011;7379;51.506;11.876;2023-05-10T08:42:05;6.03;;;4.63;;
14584;SDS011;7379;51.506;11.876;2023-05-10T08:44:34;6.60;;;5.60;;
14584;SDS011;7379;51.506;11.876;2023-05-10T08:47:02;5.93;;;5.10;;
14584;SDS011;7379;51.506;11.876;2023-05-10T08:49:32;5.85;;;4.93;;
14584;SDS011;7379;51.506;11.876;2023-05-10T08:52:00;6.07;;;5.47;;
14584;SDS011;7379;51.506;11.876;2023-05-10T08:54:32;6.38;;;5.35;;
14584;SDS011;7379;51.506;11.876;2023-05-10T08:57:00;6.10;;;5.22;;
14584;SDS011;7379;51.506;11.876;2023-05-10T08:59:27;5.95;;;5.10;;
14584;SDS011;7379;51.506;11.876;2023-05-10T09:01:55;6.00;;;5.40;;
14584;SDS011;7379;51.506;11.876;2023-05-10T09:04:24;5.43;;;4.93;;
14584;SDS011;7379;51.506;11.876;2023-05-10T09:06:51;6.25;;;5.20;;
14584;SDS011;7379;51.506;11.876;2023-05-10T09:09:18;6.22;;;5.40;;
14584;SDS011;7379;51.506;11.876;2023-05-10T09:11:47;5.68;;;5.05;;
14584;SDS011;7379;51.506;11.876;2023-05-10T09:14:14;6.47;;;5.18;;
14584;SDS011;7379;51.506;11.876;2023-05-10T09:16:42;5.88;;;5.10;;
14584;SDS011;7379;51.506;11.876;2023-05-10T09:19:09;6.45;;;4.57;;
14584;SDS011;7379;51.506;11.876;2023-05-10T09:21:36;5.68;;;4.78;;
14584;SDS011;7379;51.506;11.876;2023-05-10T09:24:04;5.82;;;4.50;;
14584;SDS011;7379;51.506;11.876;2023-05-10T09:26:32;6.05;;;4.38;;
14584;SDS011;7379;51.506;11.876;2023-05-10T09:29:03;6.03;;;4.68;;
14584;SDS011;7379;51.506;11.876;2023-05-10T09:34:20;5.55;;;4.65;;
14584;SDS011;7379;51.506;11.876;2023-05-10T09:36:54;4.90;;;4.40;;
14584;SDS011;7379;51.506;11.876;2023-05-10T09:39:29;5.90;;;4.50;;
14584;SDS011;7379;51.506;11.876;2023-05-10T09:41:57;5.28;;;4.68;;
14584;SDS011;7379;51.506;11.876;2023-05-10T09:44:27;4.55;;;4.13;;
14584;SDS011;7379;51.506;11.876;2023-05-10T09:46:53;4.88;;;4.47;;
14584;SDS011;7379;51.506;11.876;2023-05-10T09:49:20;4.40;;;4.00;;
14584;SDS011;7379;51.506;11.876;2023-05-10T09:51:56;4.85;;;4.35;;
14584;SDS011;7379;51.506;11.876;2023-05-10T09:54:27;5.35;;;4.20;;
14584;SDS011;7379;51.506;11.876;2023-05-10T09:56:53;4.40;;;3.90;;
14584;SDS011;7379;51.506;11.876;2023-05-10T09:59:20;4.50;;;4.10;;
14584;SDS011;7379;51.506;11.876;2023-05-10T10:01:50;5.20;;;3.90;;
14584;SDS011;7379;51.506;11.876;2023-05-10T10:04:17;4.20;;;3.80;;
14584;SDS011;7379;51.506;11.876;2023-05-10T10:06:45;4.05;;;3.58;;
14584;SDS011;7379;51.506;11.876;2023-05-10T10:09:13;4.57;;;3.42;;
14584;SDS011;7379;51.506;11.876;2023-05-10T10:11:40;4.30;;;3.90;;
14584;SDS011;7379;51.506;11.876;2023-05-10T10:14:07;4.65;;;3.47;;
14584;SDS011;7379;51.506;11.876;2023-05-10T10:16:34;3.53;;;3.22;;
14584;SDS011;7379;51.506;11.876;2023-05-10T10:19:02;4.43;;;3.13;;
14584;SDS011;7379;51.506;11.876;2023-05-10T10:21:29;3.42;;;3.13;;
14584;SDS011;7379;51.506;11.876;2023-05-10T10:23:56;4.07;;;3.17;;
14584;SDS011;7379;51.506;11.876;2023-05-10T10:26:23;3.20;;;2.90;;
14584;SDS011;7379;51.506;11.876;2023-05-10T10:28:51;3.20;;;2.90;;
14584;SDS011;7379;51.506;11.876;2023-05-10T10:31:32;2.83;;;2.60;;
14584;SDS011;7379;51.506;11.876;2023-05-10T10:34:05;2.92;;;2.63;;
14584;SDS011;7379;51.506;11.876;2023-05-10T10:36:33;3.00;;;2.80;;
14584;SDS011;7379;51.506;11.876;2023-05-10T10:39:08;3.25;;;2.70;;
14584;SDS011;7379;51.506;11.876;2023-05-10T10:41:37;3.10;;;2.72;;
14584;SDS011;7379;51.506;11.876;2023-05-10T10:47:05;3.22;;;2.63;;
14584;SDS011;7379;51.506;11.876;2023-05-10T10:49:43;3.50;;;2.70;;
14584;SDS011;7379;51.506;11.876;2023-05-10T10:52:15;2.65;;;2.42;;
14584;SDS011;7379;51.506;11.876;2023-05-10T10:54:49;2.80;;;2.60;;
14584;SDS011;7379;51.506;11.876;2023-05-10T10:57:17;2.97;;;2.67;;
14584;SDS011;7379;51.506;11.876;2023-05-10T10:59:46;2.60;;;2.40;;
14584;SDS011;7379;51.506;11.876;2023-05-10T11:02:33;3.78;;;2.60;;
14584;SDS011;7379;51.506;11.876;2023-05-10T11:05:14;2.60;;;2.40;;
14584;SDS011;7379;51.506;11.876;2023-05-10T11:07:53;2.80;;;2.60;;
14584;SDS011;7379;51.506;11.876;2023-05-10T11:10:21;3.08;;;2.53;;
14584;SDS011;7379;51.506;11.876;2023-05-10T11:12:52;2.55;;;2.35;;
14584;SDS011;7379;51.506;11.876;2023-05-10T11:15:20;3.03;;;2.60;;
14584;SDS011;7379;51.506;11.876;2023-05-10T11:17:54;3.08;;;2.53;;
14584;SDS011;7379;51.506;11.876;2023-05-10T11:20:23;4.47;;;2.50;;
14584;SDS011;7379;51.506;11.876;2023-05-10T11:22:58;2.85;;;2.42;;
14584;SDS011;7379;51.506;11.876;2023-05-10T11:25:40;2.88;;;2.67;;
14584;SDS011;7379;51.506;11.876;2023-05-10T11:28:08;2.53;;;2.33;;
14584;SDS011;7379;51.506;11.876;2023-05-10T11:30:35;2.50;;;2.30;;
14584;SDS011;7379;51.506;11.876;2023-05-10T11:33:02;3.17;;;2.20;;
14584;SDS011;7379;51.506;11.876;2023-05-10T11:35:30;3.53;;;2.40;;
14584;SDS011;7379;51.506;11.876;2023-05-10T11:38:04;2.42;;;2.22;;
14584;SDS011;7379;51.506;11.876;2023-05-10T11:40:32;2.40;;;2.20;;
14584;SDS011;7379;51.506;11.876;2023-05-10T11:42:58;2.53;;;2.33;;
14584;SDS011;7379;51.506;11.876;2023-05-10T11:45:25;2.40;;;2.20;;
14584;SDS011;7379;51.506;11.876;2023-05-10T11:47:53;2.25;;;2.00;;
14584;SDS011;7379;51.506;11.876;2023-05-10T11:50:21;2.33;;;2.13;;
14584;SDS011;7379;51.506;11.876;2023-05-10T11:52:51;2.63;;;2.33;;
14584;SDS011;7379;51.506;11.876;2023-05-10T11:55:18;2.20;;;2.00;;
14584;SDS011;7379;51.506;11.876;2023-05-10T11:57:45;2.30;;;2.10;;
14584;SDS011;7379;51.506;11.876;2023-05-10T12:00:13;2.00;;;1.80;;
14584;SDS011;7379;51.506;11.876;2023-05-10T12:02:40;2.13;;;1.92;;
14584;SDS011;7379;51.506;11.876;2023-05-10T12:05:07;2.10;;;1.90;;
14584;SDS011;7379;51.506;11.876;2023-05-10T12:07:35;2.10;;;1.90;;
14584;SDS011;7379;51.506;11.876;2023-05-10T12:10:04;2.03;;;1.83;;
14584;SDS011;7379;51.506;11.876;2023-05-10T12:12:35;2.33;;;2.13;;
14584;SDS011;7379;51.506;11.876;2023-05-10T12:15:10;2.05;;;1.90;;
14584;SDS011;7379;51.506;11.876;2023-05-10T12:17:37;2.67;;;2.10;;
14584;SDS011;7379;51.506;11.876;2023-05-10T12:20:18;2.10;;;1.90;;
14584;SDS011;7379;51.506;11.876;2023-05-10T12:22:46;2.30;;;1.90;;
14584;SDS011;7379;51.506;11.876;2023-05-10T12:25:16;1.92;;;1.83;;
14584;SDS011;7379;51.506;11.876;2023-05-10T12:27:48;2.20;;;2.00;;
14584;SDS011;7379;51.506;11.876;2023-05-10T12:30:21;2.00;;;1.90;;
14584;SDS011;7379;51.506;11.876;2023-05-10T12:32:48;2.00;;;1.83;;
14584;SDS011;7379;51.506;11.876;2023-05-10T12:35:16;2.05;;;1.85;;
14584;SDS011;7379;51.506;11.876;2023-05-10T12:37:45;1.88;;;1.77;;
14584;SDS011;7379;51.506;11.876;2023-05-10T12:40:12;2.40;;;2.20;;
14584;SDS011;7379;51.506;11.876;2023-05-10T12:42:41;2.17;;;1.98;;
14584;SDS011;7379;51.506;11.876;2023-05-10T12:45:10;2.35;;;2.15;;
14584;SDS011;7379;51.506;11.876;2023-05-10T12:47:37;2.22;;;2.03;;
14584;SDS011;7379;51.506;11.876;2023-05-10T12:50:05;2.55;;;2.00;;
14584;SDS011;7379;51.506;11.876;2023-05-10T12:52:32;2.60;;;1.95;;
14584;SDS011;7379;51.506;11.876;2023-05-10T12:54:59;2.10;;;1.90;;
14584;SDS011;7379;51.506;11.876;2023-05-10T12:57:26;2.15;;;2.00;;
14584;SDS011;7379;51.506;11.876;2023-05-10T12:59:55;2.10;;;1.98;;
14584;SDS011;7379;51.506;11.876;2023-05-10T13:02:22;2.15;;;1.98;;
14584;SDS011;7379;51.506;11.876;2023-05-10T13:04:49;2.20;;;2.00;;
14584;SDS011;7379;51.506;11.876;2023-05-10T13:07:16;2.30;;;2.10;;
14584;SDS011;7379;51.506;11.876;2023-05-10T13:09:43;2.20;;;2.00;;
14584;SDS011;7379;51.506;11.876;2023-05-10T13:12:09;2.17;;;2.03;;
14584;SDS011;7379;51.506;11.876;2023-05-10T13:14:36;2.50;;;2.08;;
14584;SDS011;7379;51.506;11.876;2023-05-10T13:17:06;2.35;;;1.90;;
14584;SDS011;7379;51.506;11.876;2023-05-10T13:19:33;2.33;;;2.13;;
14584;SDS011;7379;51.506;11.876;2023-05-10T13:22:00;2.10;;;2.00;;
14584;SDS011;7379;51.506;11.876;2023-05-10T13:24:27;2.22;;;2.03;;
14584;SDS011;7379;51.506;11.876;2023-05-10T13:26:54;2.17;;;1.98;;
14584;SDS011;7379;51.506;11.876;2023-05-10T13:29:21;2.45;;;2.00;;
14584;SDS011;7379;51.506;11.876;2023-05-10T13:31:47;2.00;;;1.88;;
14584;SDS011;7379;51.506;11.876;2023-05-10T13:34:16;2.40;;;2.10;;
14584;SDS011;7379;51.506;11.876;2023-05-10T13:36:45;1.98;;;1.77;;
14584;SDS011;7379;51.506;11.876;2023-05-10T13:39:12;2.40;;;1.90;;
14584;SDS011;7379;51.506;11.876;2023-05-10T13:41:39;1.90;;;1.80;;
14584;SDS011;7379;51.506;11.876;2023-05-10T13:44:06;2.20;;;2.00;;
14584;SDS011;7379;51.506;11.876;2023-05-10T13:46:33;2.22;;;2.03;;
14584;SDS011;7379;51.506;11.876;2023-05-10T13:48:59;2.15;;;2.00;;
14584;SDS011;7379;51.506;11.876;2023-05-10T13:51:28;1.80;;;1.70;;
14584;SDS011;7379;51.506;11.876;2023-05-10T13:53:56;2.25;;;1.88;;
14584;SDS011;7379;51.506;11.876;2023-05-10T13:56:23;2.10;;;1.90;;
14584;SDS011;7379;51.506;11.876;2023-05-10T13:58:50;2.00;;;1.90;;
14584;SDS011;7379;51.506;11.876;2023-05-10T14:01:17;2.63;;;1.90;;
14584;SDS011;7379;51.506;11.876;2023-05-10T14:03:44;2.00;;;1.80;;
14584;SDS011;7379;51.506;11.876;2023-05-10T14:06:11;1.70;;;1.60;;
14584;SDS011;7379;51.506;11.876;2023-05-10T14:08:39;1.92;;;1.80;;
14584;SDS011;7379;51.506;11.876;2023-05-10T14:11:06;2.45;;;1.90;;
14584;SDS011;7379;51.506;11.876;2023-05-10T14:13:33;1.90;;;1.80;;
14584;SDS011;7379;51.506;11.876;2023-05-10T14:16:00;2.00;;;1.80;;
14584;SDS011;7379;51.506;11.876;2023-05-10T14:18:27;2.03;;;1.92;;
14584;SDS011;7379;51.506;11.876;2023-05-10T14:20:54;1.83;;;1.73;;
14584;SDS011;7379;51.506;11.876;2023-05-10T14:23:21;1.88;;;1.77;;
14584;SDS011;7379;51.506;11.876;2023-05-10T14:25:51;2.00;;;1.90;;
14584;SDS011;7379;51.506;11.876;2023-05-10T14:28:18;2.00;;;1.80;;
14584;SDS011;7379;51.506;11.876;2023-05-10T14:30:45;2.88;;;2.15;;
14584;SDS011;7379;51.506;11.876;2023-05-10T14:33:12;2.40;;;2.20;;
14584;SDS011;7379;51.506;11.876;2023-05-10T14:35:39;2.03;;;1.90;;
14584;SDS011;7379;51.506;11.876;2023-05-10T14:38:06;2.50;;;2.30;;
14584;SDS011;7379;51.506;11.876;2023-05-10T14:40:32;2.15;;;2.00;;
14584;SDS011;7379;51.506;11.876;2023-05-10T14:43:01;2.30;;;2.10;;
14584;SDS011;7379;51.506;11.876;2023-05-10T14:45:28;2.15;;;2.00;;
14584;SDS011;7379;51.506;11.876;2023-05-10T14:47:55;2.10;;;1.90;;
14584;SDS011;7379;51.506;11.876;2023-05-10T14:50:22;2.10;;;1.90;;
14584;SDS011;7379;51.506;11.876;2023-05-10T14:52:49;2.30;;;2.10;;
14584;SDS011;7379;51.506;11.876;2023-05-10T14:55:15;2.30;;;2.10;;
14584;SDS011;7379;51.506;11.876;2023-05-10T14:57:42;2.30;;;2.10;;
14584;SDS011;7379;51.506;11.876;2023-05-10T15:00:14;2.70;;;2.10;;